sensor_id;sensor_type;location;lat;lon;timestamp;temperature;humidity
27779;DHT22;30234;48.090;11.464;2023-09-19T00:03:33;15.70;99.90
27779;DHT22;30234;48.090;11.464;2023-09-19T00:07:34;15.70;99.90
27779;DHT22;30234;48.090;11.464;2023-09-19T00:11:37;15.70;99.90
27779;DHT22;30234;48.090;11.464;2023-09-19T00:15:44;15.90;99.90
27779;DHT22;30234;48.090;11.464;2023-09-19T00:19:49;16.10;99.90
27779;DHT22;30234;48.090;11.464;2023-09-19T00:23:49;16.20;99.90
27779;DHT22;30234;48.090;11.464;2023-09-19T00:27:52;16.10;99.90
27779;DHT22;30234;48.090;11.464;2023-09-19T00:31:55;16.30;99.90
27779;DHT22;30234;48.090;11.464;2023-09-19T00:35:59;16.50;99.90
27779;DHT22;30234;48.090;11.464;2023-09-19T00:40:03;16.40;99.90
27779;DHT22;30234;48.090;11.464;2023-09-19T00:44:11;16.40;99.90
27779;DHT22;30234;48.090;11.464;2023-09-19T00:48:12;16.30;99.90
27779;DHT22;30234;48.090;11.464;2023-09-19T00:52:13;16.40;99.90
27779;DHT22;30234;48.090;11.464;2023-09-19T00:56:15;16.30;99.90
27779;DHT22;30234;48.090;11.464;2023-09-19T01:00:18;16.30;99.90
27779;DHT22;30234;48.090;11.464;2023-09-19T01:04:20;16.40;99.90
27779;DHT22;30234;48.090;11.464;2023-09-19T01:08:22;16.40;99.90
27779;DHT22;30234;48.090;11.464;2023-09-19T01:12:32;16.30;99.90
27779;DHT22;30234;48.090;11.464;2023-09-19T01:17:41;16.40;99.90
27779;DHT22;30234;48.090;11.464;2023-09-19T01:21:52;16.60;99.90
27779;DHT22;30234;48.090;11.464;2023-09-19T01:26:17;16.70;99.90
27779;DHT22;30234;48.090;11.464;2023-09-19T01:30:27;16.80;99.90
27779;DHT22;30234;48.090;11.464;2023-09-19T01:34:55;16.80;99.90
27779;DHT22;30234;48.090;11.464;2023-09-19T01:38:59;16.80;99.90
27779;DHT22;30234;48.090;11.464;2023-09-19T01:43:20;16.80;99.90
27779;DHT22;30234;48.090;11.464;2023-09-19T01:52:10;16.80;99.90
27779;DHT22;30234;48.090;11.464;2023-09-19T01:56:25;16.80;99.90
27779;DHT22;30234;48.090;11.464;2023-09-19T02:00:50;16.40;99.90
27779;DHT22;30234;48.090;11.464;2023-09-19T02:04:54;16.30;99.90
27779;DHT22;30234;48.090;11.464;2023-09-19T02:08:56;16.20;99.90
27779;DHT22;30234;48.090;11.464;2023-09-19T02:12:57;16.00;99.90
27779;DHT22;30234;48.090;11.464;2023-09-19T02:16:59;15.90;99.90
27779;DHT22;30234;48.090;11.464;2023-09-19T02:21:11;15.90;99.90
27779;DHT22;30234;48.090;11.464;2023-09-19T02:25:13;15.70;99.90
27779;DHT22;30234;48.090;11.464;2023-09-19T02:29:14;15.60;99.90
27779;DHT22;30234;48.090;11.464;2023-09-19T02:33:16;15.60;99.90
27779;DHT22;30234;48.090;11.464;2023-09-19T02:37:18;15.50;99.90
27779;DHT22;30234;48.090;11.464;2023-09-19T02:41:20;15.40;99.90
27779;DHT22;30234;48.090;11.464;2023-09-19T02:45:21;15.40;99.90
27779;DHT22;30234;48.090;11.464;2023-09-19T02:49:23;15.70;99.90
27779;DHT22;30234;48.090;11.464;2023-09-19T02:53:24;15.90;99.90
27779;DHT22;30234;48.090;11.464;2023-09-19T02:57:24;15.90;99.90
27779;DHT22;30234;48.090;11.464;2023-09-19T03:01:26;15.90;99.90
27779;DHT22;30234;48.090;11.464;2023-09-19T03:05:28;15.90;99.90
27779;DHT22;30234;48.090;11.464;2023-09-19T03:09:31;15.90;99.90
27779;DHT22;30234;48.090;11.464;2023-09-19T03:13:32;16.10;99.90
27779;DHT22;30234;48.090;11.464;2023-09-19T03:17:33;16.20;99.90
27779;DHT22;30234;48.090;11.464;2023-09-19T03:21:34;16.20;99.90
27779;DHT22;30234;48.090;11.464;2023-09-19T03:25:35;16.20;99.90
27779;DHT22;30234;48.090;11.464;2023-09-19T03:29:36;16.20;99.90
27779;DHT22;30234;48.090;11.464;2023-09-19T03:33:37;16.20;99.90
27779;DHT22;30234;48.090;11.464;2023-09-19T03:37:38;16.20;99.90
27779;DHT22;30234;48.090;11.464;2023-09-19T03:41:39;16.30;99.90
27779;DHT22;30234;48.090;11.464;2023-09-19T03:45:40;16.30;99.90
27779;DHT22;30234;48.090;11.464;2023-09-19T03:49:41;16.20;99.90
27779;DHT22;30234;48.090;11.464;2023-09-19T03:53:42;16.30;99.90
27779;DHT22;30234;48.090;11.464;2023-09-19T03:57:48;16.40;99.90
27779;DHT22;30234;48.090;11.464;2023-09-19T04:01:50;16.50;99.90
27779;DHT22;30234;48.090;11.464;2023-09-19T04:05:56;16.50;99.90
27779;DHT22;30234;48.090;11.464;2023-09-19T04:09:57;16.40;99.90
27779;DHT22;30234;48.090;11.464;2023-09-19T04:13:57;16.50;99.90
27779;DHT22;30234;48.090;11.464;2023-09-19T04:17:58;16.50;99.90
27779;DHT22;30234;48.090;11.464;2023-09-19T04:22:00;16.50;99.90
27779;DHT22;30234;48.090;11.464;2023-09-19T04:26:01;16.40;99.90
27779;DHT22;30234;48.090;11.464;2023-09-19T04:30:06;16.40;99.90
27779;DHT22;30234;48.090;11.464;2023-09-19T04:34:10;16.40;99.90
27779;DHT22;30234;48.090;11.464;2023-09-19T04:38:20;16.30;99.90
27779;DHT22;30234;48.090;11.464;2023-09-19T04:42:21;16.30;99.90
27779;DHT22;30234;48.090;11.464;2023-09-19T04:46:25;16.30;99.90
27779;DHT22;30234;48.090;11.464;2023-09-19T04:50:26;16.20;99.90
27779;DHT22;30234;48.090;11.464;2023-09-19T04:54:28;16.20;99.90
27779;DHT22;30234;48.090;11.464;2023-09-19T04:58:29;16.10;99.90
27779;DHT22;30234;48.090;11.464;2023-09-19T05:02:30;16.20;99.90
27779;DHT22;30234;48.090;11.464;2023-09-19T05:06:31;16.20;99.90
27779;DHT22;30234;48.090;11.464;2023-09-19T05:10:34;16.10;99.90
27779;DHT22;30234;48.090;11.464;2023-09-19T05:14:38;16.30;99.90
27779;DHT22;30234;48.090;11.464;2023-09-19T05:18:41;16.40;99.90
27779;DHT22;30234;48.090;11.464;2023-09-19T05:22:43;16.40;99.90
27779;DHT22;30234;48.090;11.464;2023-09-19T05:26:43;16.40;99.90
27779;DHT22;30234;48.090;11.464;2023-09-19T05:30:46;17.30;99.90
27779;DHT22;30234;48.090;11.464;2023-09-19T05:34:48;17.40;99.90
27779;DHT22;30234;48.090;11.464;2023-09-19T05:38:48;17.10;99.90
27779;DHT22;30234;48.090;11.464;2023-09-19T05:42:51;16.80;99.90
27779;DHT22;30234;48.090;11.464;2023-09-19T05:46:53;16.60;99.90
27779;DHT22;30234;48.090;11.464;2023-09-19T05:50:54;16.40;99.90
27779;DHT22;30234;48.090;11.464;2023-09-19T05:54:55;16.60;99.90
27779;DHT22;30234;48.090;11.464;2023-09-19T05:58:57;17.30;99.90
27779;DHT22;30234;48.090;11.464;2023-09-19T06:02:58;18.60;99.90
27779;DHT22;30234;48.090;11.464;2023-09-19T06:07:00;19.00;99.90
27779;DHT22;30234;48.090;11.464;2023-09-19T06:11:01;18.10;99.90
27779;DHT22;30234;48.090;11.464;2023-09-19T06:15:04;17.70;99.90
27779;DHT22;30234;48.090;11.464;2023-09-19T06:19:06;17.70;99.90
27779;DHT22;30234;48.090;11.464;2023-09-19T06:23:09;17.80;99.90
27779;DHT22;30234;48.090;11.464;2023-09-19T06:27:10;18.00;99.90
27779;DHT22;30234;48.090;11.464;2023-09-19T06:31:11;18.20;99.90
27779;DHT22;30234;48.090;11.464;2023-09-19T06:35:14;18.20;99.90
27779;DHT22;30234;48.090;11.464;2023-09-19T06:39:16;18.50;99.90
27779;DHT22;30234;48.090;11.464;2023-09-19T06:43:17;18.70;99.90
27779;DHT22;30234;48.090;11.464;2023-09-19T06:47:18;18.80;99.90
27779;DHT22;30234;48.090;11.464;2023-09-19T06:51:22;18.70;99.90
27779;DHT22;30234;48.090;11.464;2023-09-19T06:55:23;18.90;99.90
27779;DHT22;30234;48.090;11.464;2023-09-19T06:59:25;19.30;99.90
27779;DHT22;30234;48.090;11.464;2023-09-19T07:03:26;19.10;99.90
27779;DHT22;30234;48.090;11.464;2023-09-19T07:07:29;18.40;99.90
27779;DHT22;30234;48.090;11.464;2023-09-19T07:11:30;18.30;99.90
27779;DHT22;30234;48.090;11.464;2023-09-19T07:15:37;18.30;99.90
27779;DHT22;30234;48.090;11.464;2023-09-19T07:19:40;18.40;99.90
27779;DHT22;30234;48.090;11.464;2023-09-19T07:23:45;18.50;99.90
27779;DHT22;30234;48.090;11.464;2023-09-19T07:27:46;18.40;99.90
27779;DHT22;30234;48.090;11.464;2023-09-19T07:31:50;19.60;99.90
27779;DHT22;30234;48.090;11.464;2023-09-19T07:36:04;21.50;99.90
27779;DHT22;30234;48.090;11.464;2023-09-19T07:40:28;21.10;99.90
27779;DHT22;30234;48.090;11.464;2023-09-19T07:44:42;21.60;99.90
27779;DHT22;30234;48.090;11.464;2023-09-19T07:49:49;21.30;99.90
27779;DHT22;30234;48.090;11.464;2023-09-19T07:53:35;21.00;99.90
27779;DHT22;30234;48.090;11.464;2023-09-19T07:57:40;20.90;99.90
27779;DHT22;30234;48.090;11.464;2023-09-19T08:01:45;21.60;99.90
27779;DHT22;30234;48.090;11.464;2023-09-19T08:05:46;22.20;99.90
27779;DHT22;30234;48.090;11.464;2023-09-19T08:09:50;21.40;99.90
27779;DHT22;30234;48.090;11.464;2023-09-19T08:14:19;21.80;99.90
27779;DHT22;30234;48.090;11.464;2023-09-19T08:18:47;23.30;99.90
27779;DHT22;30234;48.090;11.464;2023-09-19T08:23:11;25.10;99.90
27779;DHT22;30234;48.090;11.464;2023-09-19T08:32:49;24.60;99.90
27779;DHT22;30234;48.090;11.464;2023-09-19T08:36:51;25.20;99.90
27779;DHT22;30234;48.090;11.464;2023-09-19T08:41:05;26.00;99.90
27779;DHT22;30234;48.090;11.464;2023-09-19T08:45:11;25.20;99.90
27779;DHT22;30234;48.090;11.464;2023-09-19T09:00:31;27.50;99.90
27779;DHT22;30234;48.090;11.464;2023-09-19T09:04:35;25.20;99.90
27779;DHT22;30234;48.090;11.464;2023-09-19T09:08:37;24.40;99.90
27779;DHT22;30234;48.090;11.464;2023-09-19T09:12:40;23.00;99.90
27779;DHT22;30234;48.090;11.464;2023-09-19T09:16:42;22.10;99.90
27779;DHT22;30234;48.090;11.464;2023-09-19T09:20:43;21.30;99.90
27779;DHT22;30234;48.090;11.464;2023-09-19T09:24:56;21.30;99.90
27779;DHT22;30234;48.090;11.464;2023-09-19T09:29:07;23.60;99.90
27779;DHT22;30234;48.090;11.464;2023-09-19T09:33:13;25.70;99.90
27779;DHT22;30234;48.090;11.464;2023-09-19T09:37:36;25.00;99.90
27779;DHT22;30234;48.090;11.464;2023-09-19T09:41:39;23.30;99.90
27779;DHT22;30234;48.090;11.464;2023-09-19T09:45:43;22.10;99.90
27779;DHT22;30234;48.090;11.464;2023-09-19T09:49:52;21.20;99.90
27779;DHT22;30234;48.090;11.464;2023-09-19T09:54:11;21.40;99.90
27779;DHT22;30234;48.090;11.464;2023-09-19T09:58:16;23.60;99.90
27779;DHT22;30234;48.090;11.464;2023-09-19T10:02:29;24.40;99.90
27779;DHT22;30234;48.090;11.464;2023-09-19T10:06:43;23.90;99.90
27779;DHT22;30234;48.090;11.464;2023-09-19T10:10:52;23.10;99.90
27779;DHT22;30234;48.090;11.464;2023-09-19T10:15:25;22.70;99.90
27779;DHT22;30234;48.090;11.464;2023-09-19T10:19:32;23.60;99.90
27779;DHT22;30234;48.090;11.464;2023-09-19T10:23:41;24.80;99.90
27779;DHT22;30234;48.090;11.464;2023-09-19T10:27:45;25.50;99.90
27779;DHT22;30234;48.090;11.464;2023-09-19T10:37:39;26.20;98.70
27779;DHT22;30234;48.090;11.464;2023-09-19T10:41:43;26.80;97.60
27779;DHT22;30234;48.090;11.464;2023-09-19T10:45:46;27.20;95.60
27779;DHT22;30234;48.090;11.464;2023-09-19T10:50:02;26.90;94.50
27779;DHT22;30234;48.090;11.464;2023-09-19T10:54:16;26.90;94.60
27779;DHT22;30234;48.090;11.464;2023-09-19T10:58:29;27.30;93.90
27779;DHT22;30234;48.090;11.464;2023-09-19T11:02:34;28.10;91.70
27779;DHT22;30234;48.090;11.464;2023-09-19T11:06:41;26.70;92.70
27779;DHT22;30234;48.090;11.464;2023-09-19T11:11:39;27.20;91.50
27779;DHT22;30234;48.090;11.464;2023-09-19T11:28:39;27.40;89.10
27779;DHT22;30234;48.090;11.464;2023-09-19T11:49:46;27.10;81.80
27779;DHT22;30234;48.090;11.464;2023-09-19T11:55:07;26.00;84.00
27779;DHT22;30234;48.090;11.464;2023-09-19T11:59:38;26.30;83.70
27779;DHT22;30234;48.090;11.464;2023-09-19T12:03:45;26.00;86.20
27779;DHT22;30234;48.090;11.464;2023-09-19T12:07:50;26.20;87.00
27779;DHT22;30234;48.090;11.464;2023-09-19T12:12:07;25.70;86.50
27779;DHT22;30234;48.090;11.464;2023-09-19T12:49:22;28.10;80.00
27779;DHT22;30234;48.090;11.464;2023-09-19T13:17:08;29.20;73.30
27779;DHT22;30234;48.090;11.464;2023-09-19T13:21:28;28.50;74.50
27779;DHT22;30234;48.090;11.464;2023-09-19T13:25:33;29.20;75.50
27779;DHT22;30234;48.090;11.464;2023-09-19T13:29:35;28.50;74.60
27779;DHT22;30234;48.090;11.464;2023-09-19T13:33:43;29.00;74.90
27779;DHT22;30234;48.090;11.464;2023-09-19T13:37:48;29.00;72.00
27779;DHT22;30234;48.090;11.464;2023-09-19T13:41:52;27.00;71.50
27779;DHT22;30234;48.090;11.464;2023-09-19T13:45:52;26.80;74.80
27779;DHT22;30234;48.090;11.464;2023-09-19T13:49:53;27.60;73.80
27779;DHT22;30234;48.090;11.464;2023-09-19T13:53:54;27.40;73.90
27779;DHT22;30234;48.090;11.464;2023-09-19T13:57:55;27.10;75.70
27779;DHT22;30234;48.090;11.464;2023-09-19T14:01:56;27.20;77.10
27779;DHT22;30234;48.090;11.464;2023-09-19T14:05:57;27.40;74.60
27779;DHT22;30234;48.090;11.464;2023-09-19T14:09:58;27.00;75.30
27779;DHT22;30234;48.090;11.464;2023-09-19T14:13:59;27.10;76.20
27779;DHT22;30234;48.090;11.464;2023-09-19T14:18:00;27.20;76.80
27779;DHT22;30234;48.090;11.464;2023-09-19T14:22:02;26.90;77.30
27779;DHT22;30234;48.090;11.464;2023-09-19T14:26:08;26.40;78.20
27779;DHT22;30234;48.090;11.464;2023-09-19T14:30:10;27.00;78.00
27779;DHT22;30234;48.090;11.464;2023-09-19T14:34:11;27.20;76.60
27779;DHT22;30234;48.090;11.464;2023-09-19T14:38:12;27.00;76.30
27779;DHT22;30234;48.090;11.464;2023-09-19T14:42:14;26.80;75.30
27779;DHT22;30234;48.090;11.464;2023-09-19T14:46:18;27.10;76.90
27779;DHT22;30234;48.090;11.464;2023-09-19T14:50:19;27.30;75.70
27779;DHT22;30234;48.090;11.464;2023-09-19T14:54:20;28.20;74.10
27779;DHT22;30234;48.090;11.464;2023-09-19T14:58:21;28.10;71.30
27779;DHT22;30234;48.090;11.464;2023-09-19T15:02:22;27.40;72.80
27779;DHT22;30234;48.090;11.464;2023-09-19T15:06:23;27.30;72.90
27779;DHT22;30234;48.090;11.464;2023-09-19T15:10:24;27.70;73.10
27779;DHT22;30234;48.090;11.464;2023-09-19T15:14:25;27.30;73.30
27779;DHT22;30234;48.090;11.464;2023-09-19T15:18:26;26.90;73.90
27779;DHT22;30234;48.090;11.464;2023-09-19T15:22:27;26.10;76.20
27779;DHT22;30234;48.090;11.464;2023-09-19T15:26:28;26.60;76.10
27779;DHT22;30234;48.090;11.464;2023-09-19T15:30:30;27.20;75.50
27779;DHT22;30234;48.090;11.464;2023-09-19T15:34:31;26.60;75.00
27779;DHT22;30234;48.090;11.464;2023-09-19T15:43:01;25.90;76.10
27779;DHT22;30234;48.090;11.464;2023-09-19T15:47:04;25.60;76.40
27779;DHT22;30234;48.090;11.464;2023-09-19T15:51:05;25.40;76.60
27779;DHT22;30234;48.090;11.464;2023-09-19T15:55:06;25.10;76.50
27779;DHT22;30234;48.090;11.464;2023-09-19T15:59:08;24.80;77.40
27779;DHT22;30234;48.090;11.464;2023-09-19T16:03:18;24.90;77.60
27779;DHT22;30234;48.090;11.464;2023-09-19T16:07:21;24.50;78.90
27779;DHT22;30234;48.090;11.464;2023-09-19T16:11:22;24.30;79.00
27779;DHT22;30234;48.090;11.464;2023-09-19T16:15:23;24.30;79.40
27779;DHT22;30234;48.090;11.464;2023-09-19T16:19:24;24.40;79.00
27779;DHT22;30234;48.090;11.464;2023-09-19T16:23:25;24.00;80.10
27779;DHT22;30234;48.090;11.464;2023-09-19T16:27:26;23.80;81.30
27779;DHT22;30234;48.090;11.464;2023-09-19T16:31:28;23.20;82.80
27779;DHT22;30234;48.090;11.464;2023-09-19T16:35:29;23.00;83.10
27779;DHT22;30234;48.090;11.464;2023-09-19T16:39:30;22.10;86.80
27779;DHT22;30234;48.090;11.464;2023-09-19T16:43:32;21.50;88.80
27779;DHT22;30234;48.090;11.464;2023-09-19T16:47:33;20.90;90.50
27779;DHT22;30234;48.090;11.464;2023-09-19T16:51:34;20.40;91.60
27779;DHT22;30234;48.090;11.464;2023-09-19T16:55:35;20.10;92.50
27779;DHT22;30234;48.090;11.464;2023-09-19T16:59:36;19.40;94.20
27779;DHT22;30234;48.090;11.464;2023-09-19T17:03:38;19.50;94.20
27779;DHT22;30234;48.090;11.464;2023-09-19T17:07:42;19.20;95.10
27779;DHT22;30234;48.090;11.464;2023-09-19T17:11:43;19.10;95.60
27779;DHT22;30234;48.090;11.464;2023-09-19T17:15:46;18.90;96.40
27779;DHT22;30234;48.090;11.464;2023-09-19T17:19:48;18.60;97.70
27779;DHT22;30234;48.090;11.464;2023-09-19T17:23:49;18.30;99.20
27779;DHT22;30234;48.090;11.464;2023-09-19T17:27:51;17.70;99.90
27779;DHT22;30234;48.090;11.464;2023-09-19T17:31:52;17.30;99.90
27779;DHT22;30234;48.090;11.464;2023-09-19T17:36:05;16.90;99.90
27779;DHT22;30234;48.090;11.464;2023-09-19T17:40:08;16.50;99.90
27779;DHT22;30234;48.090;11.464;2023-09-19T17:44:11;16.30;99.90
27779;DHT22;30234;48.090;11.464;2023-09-19T17:48:12;15.90;99.90
27779;DHT22;30234;48.090;11.464;2023-09-19T17:52:13;15.60;99.90
27779;DHT22;30234;48.090;11.464;2023-09-19T17:56:16;15.40;99.90
27779;DHT22;30234;48.090;11.464;2023-09-19T18:00:17;15.20;99.90
27779;DHT22;30234;48.090;11.464;2023-09-19T18:04:18;15.00;99.90
27779;DHT22;30234;48.090;11.464;2023-09-19T18:08:20;15.90;99.90
27779;DHT22;30234;48.090;11.464;2023-09-19T18:12:21;14.60;99.90
27779;DHT22;30234;48.090;11.464;2023-09-19T18:16:22;14.40;99.90
27779;DHT22;30234;48.090;11.464;2023-09-19T18:20:35;14.30;99.90
27779;DHT22;30234;48.090;11.464;2023-09-19T18:24:37;14.10;99.90
27779;DHT22;30234;48.090;11.464;2023-09-19T18:28:38;14.10;99.90
27779;DHT22;30234;48.090;11.464;2023-09-19T18:32:39;14.10;99.90
27779;DHT22;30234;48.090;11.464;2023-09-19T18:36:41;14.10;99.90
27779;DHT22;30234;48.090;11.464;2023-09-19T18:40:45;14.20;99.90
27779;DHT22;30234;48.090;11.464;2023-09-19T18:44:46;14.00;99.90
27779;DHT22;30234;48.090;11.464;2023-09-19T18:48:47;14.00;99.90
27779;DHT22;30234;48.090;11.464;2023-09-19T18:52:53;13.90;99.90
27779;DHT22;30234;48.090;11.464;2023-09-19T18:56:54;13.90;99.90
27779;DHT22;30234;48.090;11.464;2023-09-19T19:01:05;13.70;99.90
27779;DHT22;30234;48.090;11.464;2023-09-19T19:05:07;13.50;99.90
27779;DHT22;30234;48.090;11.464;2023-09-19T19:09:13;13.40;99.90
27779;DHT22;30234;48.090;11.464;2023-09-19T19:13:15;13.20;99.90
27779;DHT22;30234;48.090;11.464;2023-09-19T19:21:20;11.80;99.90
27779;DHT22;30234;48.090;11.464;2023-09-19T19:25:22;13.10;99.90
27779;DHT22;30234;48.090;11.464;2023-09-19T19:29:23;13.10;99.90
27779;DHT22;30234;48.090;11.464;2023-09-19T19:33:24;13.00;99.90
27779;DHT22;30234;48.090;11.464;2023-09-19T19:37:27;13.00;99.90
27779;DHT22;30234;48.090;11.464;2023-09-19T19:41:28;12.90;99.90
27779;DHT22;30234;48.090;11.464;2023-09-19T19:45:29;12.80;99.90
27779;DHT22;30234;48.090;11.464;2023-09-19T19:49:31;12.60;99.90
27779;DHT22;30234;48.090;11.464;2023-09-19T19:53:33;12.60;99.90
27779;DHT22;30234;48.090;11.464;2023-09-19T19:57:34;12.70;99.90
27779;DHT22;30234;48.090;11.464;2023-09-19T20:01:36;12.70;99.90
27779;DHT22;30234;48.090;11.464;2023-09-19T20:05:40;12.50;99.90
27779;DHT22;30234;48.090;11.464;2023-09-19T20:09:42;12.40;99.90
27779;DHT22;30234;48.090;11.464;2023-09-19T20:13:43;12.50;99.90
27779;DHT22;30234;48.090;11.464;2023-09-19T20:17:44;12.40;99.90
27779;DHT22;30234;48.090;11.464;2023-09-19T20:21:46;12.30;99.90
27779;DHT22;30234;48.090;11.464;2023-09-19T20:25:48;12.30;99.90
27779;DHT22;30234;48.090;11.464;2023-09-19T20:29:49;12.20;99.90
27779;DHT22;30234;48.090;11.464;2023-09-19T20:33:50;12.40;99.90
27779;DHT22;30234;48.090;11.464;2023-09-19T20:37:51;12.30;99.90
27779;DHT22;30234;48.090;11.464;2023-09-19T20:41:55;12.30;99.90
27779;DHT22;30234;48.090;11.464;2023-09-19T20:45:56;12.20;99.90
27779;DHT22;30234;48.090;11.464;2023-09-19T20:49:58;12.30;99.90
27779;DHT22;30234;48.090;11.464;2023-09-19T20:53:59;12.30;99.90
27779;DHT22;30234;48.090;11.464;2023-09-19T20:58:00;12.30;99.90
27779;DHT22;30234;48.090;11.464;2023-09-19T21:02:01;12.20;99.90
27779;DHT22;30234;48.090;11.464;2023-09-19T21:06:07;12.20;99.90
27779;DHT22;30234;48.090;11.464;2023-09-19T21:10:09;12.20;99.90
27779;DHT22;30234;48.090;11.464;2023-09-19T21:14:11;12.10;99.90
27779;DHT22;30234;48.090;11.464;2023-09-19T21:18:12;12.00;99.90
27779;DHT22;30234;48.090;11.464;2023-09-19T21:22:13;11.90;99.90
27779;DHT22;30234;48.090;11.464;2023-09-19T21:26:15;12.20;99.90
27779;DHT22;30234;48.090;11.464;2023-09-19T21:30:16;11.80;99.90
27779;DHT22;30234;48.090;11.464;2023-09-19T21:34:17;11.70;99.90
27779;DHT22;30234;48.090;11.464;2023-09-19T21:38:19;11.70;99.90
27779;DHT22;30234;48.090;11.464;2023-09-19T21:42:20;11.80;99.90
27779;DHT22;30234;48.090;11.464;2023-09-19T21:46:22;11.70;99.90
27779;DHT22;30234;48.090;11.464;2023-09-19T21:50:23;11.90;99.90
27779;DHT22;30234;48.090;11.464;2023-09-19T21:54:25;12.10;99.90
27779;DHT22;30234;48.090;11.464;2023-09-19T21:58:30;12.00;99.90
27779;DHT22;30234;48.090;11.464;2023-09-19T22:02:34;11.90;99.90
27779;DHT22;30234;48.090;11.464;2023-09-19T22:06:35;11.90;99.90
27779;DHT22;30234;48.090;11.464;2023-09-19T22:10:47;12.00;99.90
27779;DHT22;30234;48.090;11.464;2023-09-19T22:14:55;11.90;99.90
27779;DHT22;30234;48.090;11.464;2023-09-19T22:19:01;11.70;99.90
27779;DHT22;30234;48.090;11.464;2023-09-19T22:23:02;11.70;99.90
27779;DHT22;30234;48.090;11.464;2023-09-19T22:27:05;11.80;99.90
27779;DHT22;30234;48.090;11.464;2023-09-19T22:31:13;11.80;99.90
27779;DHT22;30234;48.090;11.464;2023-09-19T22:35:38;11.90;99.90
27779;DHT22;30234;48.090;11.464;2023-09-19T22:39:40;12.10;99.90
27779;DHT22;30234;48.090;11.464;2023-09-19T22:43:42;12.30;99.90
27779;DHT22;30234;48.090;11.464;2023-09-19T22:47:50;12.40;99.90
27779;DHT22;30234;48.090;11.464;2023-09-19T22:51:51;12.50;99.90
27779;DHT22;30234;48.090;11.464;2023-09-19T22:55:53;12.70;99.90
27779;DHT22;30234;48.090;11.464;2023-09-19T23:00:06;12.80;99.90
27779;DHT22;30234;48.090;11.464;2023-09-19T23:04:18;12.80;99.90
27779;DHT22;30234;48.090;11.464;2023-09-19T23:08:40;12.70;99.90
27779;DHT22;30234;48.090;11.464;2023-09-19T23:12:41;12.70;99.90
27779;DHT22;30234;48.090;11.464;2023-09-19T23:16:43;12.90;99.90
27779;DHT22;30234;48.090;11.464;2023-09-19T23:20:54;12.70;99.90
27779;DHT22;30234;48.090;11.464;2023-09-19T23:25:15;12.80;99.90
27779;DHT22;30234;48.090;11.464;2023-09-19T23:29:29;12.80;99.90
27779;DHT22;30234;48.090;11.464;2023-09-19T23:33:31;12.70;99.90
27779;DHT22;30234;48.090;11.464;2023-09-19T23:37:41;12.70;99.90
27779;DHT22;30234;48.090;11.464;2023-09-19T23:41:55;12.70;99.90
27779;DHT22;30234;48.090;11.464;2023-09-19T23:46:05;12.50;99.90
27779;DHT22;30234;48.090;11.464;2023-09-19T23:50:10;12.40;99.90
27779;DHT22;30234;48.090;11.464;2023-09-19T23:55:26;12.30;99.90
